sensor_id;sensor_type;location;lat;lon;timestamp;P1;durP1;ratioP1;P2;durP2;ratioP2
21758;SDS011;11041;50.854;20.580;2022-09-16T00:02:18;14.35;;;8.88;;
21758;SDS011;11041;50.854;20.580;2022-09-16T00:04:45;11.27;;;7.93;;
21758;SDS011;11041;50.854;20.580;2022-09-16T00:07:11;13.07;;;8.32;;
21758;SDS011;11041;50.854;20.580;2022-09-16T00:09:38;17.58;;;8.43;;
21758;SDS011;11041;50.854;20.580;2022-09-16T00:12:05;12.60;;;8.23;;
21758;SDS011;11041;50.854;20.580;2022-09-16T00:14:45;12.75;;;8.15;;
21758;SDS011;11041;50.854;20.580;2022-09-16T00:17:12;15.43;;;8.05;;
21758;SDS011;11041;50.854;20.580;2022-09-16T00:19:39;13.60;;;7.40;;
21758;SDS011;11041;50.854;20.580;2022-09-16T00:22:06;14.63;;;7.68;;
21758;SDS011;11041;50.854;20.580;2022-09-16T00:24:32;8.18;;;7.22;;
21758;SDS011;11041;50.854;20.580;2022-09-16T00:26:58;14.77;;;7.82;;
21758;SDS011;11041;50.854;20.580;2022-09-16T00:29:25;11.75;;;7.60;;
21758;SDS011;11041;50.854;20.580;2022-09-16T00:31:51;12.15;;;7.63;;
21758;SDS011;11041;50.854;20.580;2022-09-16T00:34:18;12.50;;;7.55;;
21758;SDS011;11041;50.854;20.580;2022-09-16T00:36:45;7.78;;;6.47;;
21758;SDS011;11041;50.854;20.580;2022-09-16T00:39:11;8.07;;;6.50;;
21758;SDS011;11041;50.854;20.580;2022-09-16T00:41:38;18.15;;;6.93;;
21758;SDS011;11041;50.854;20.580;2022-09-16T00:44:06;11.35;;;6.00;;
21758;SDS011;11041;50.854;20.580;2022-09-16T00:47:10;11.60;;;5.95;;
21758;SDS011;11041;50.854;20.580;2022-09-16T00:49:41;8.88;;;5.95;;
21758;SDS011;11041;50.854;20.580;2022-09-16T00:52:10;10.35;;;5.90;;
21758;SDS011;11041;50.854;20.580;2022-09-16T00:54:38;9.65;;;6.80;;
21758;SDS011;11041;50.854;20.580;2022-09-16T00:57:06;9.35;;;6.57;;
21758;SDS011;11041;50.854;20.580;2022-09-16T00:59:41;9.30;;;5.95;;
21758;SDS011;11041;50.854;20.580;2022-09-16T01:02:16;9.70;;;5.78;;
21758;SDS011;11041;50.854;20.580;2022-09-16T01:04:47;12.80;;;6.90;;
21758;SDS011;11041;50.854;20.580;2022-09-16T01:07:19;19.40;;;7.03;;
21758;SDS011;11041;50.854;20.580;2022-09-16T01:09:58;9.70;;;6.07;;
21758;SDS011;11041;50.854;20.580;2022-09-16T01:12:26;10.98;;;6.32;;
21758;SDS011;11041;50.854;20.580;2022-09-16T01:14:55;10.18;;;6.43;;
21758;SDS011;11041;50.854;20.580;2022-09-16T01:17:39;9.60;;;5.93;;
21758;SDS011;11041;50.854;20.580;2022-09-16T01:27:17;10.70;;;6.70;;
21758;SDS011;11041;50.854;20.580;2022-09-16T01:30:17;9.15;;;6.28;;
21758;SDS011;11041;50.854;20.580;2022-09-16T01:36:16;12.07;;;6.40;;
21758;SDS011;11041;50.854;20.580;2022-09-16T01:39:31;10.25;;;6.30;;
21758;SDS011;11041;50.854;20.580;2022-09-16T01:42:20;11.25;;;7.00;;
21758;SDS011;11041;50.854;20.580;2022-09-16T01:45:38;11.05;;;6.47;;
21758;SDS011;11041;50.854;20.580;2022-09-16T01:48:36;11.43;;;6.13;;
21758;SDS011;11041;50.854;20.580;2022-09-16T01:51:22;15.32;;;6.25;;
21758;SDS011;11041;50.854;20.580;2022-09-16T02:00:03;14.27;;;6.85;;
21758;SDS011;11041;50.854;20.580;2022-09-16T02:05:36;10.15;;;7.03;;
21758;SDS011;11041;50.854;20.580;2022-09-16T02:08:16;12.60;;;7.75;;
21758;SDS011;11041;50.854;20.580;2022-09-16T02:11:00;15.43;;;7.57;;
21758;SDS011;11041;50.854;20.580;2022-09-16T02:13:33;19.13;;;11.65;;
21758;SDS011;11041;50.854;20.580;2022-09-16T02:16:08;11.18;;;7.63;;
21758;SDS011;11041;50.854;20.580;2022-09-16T02:18:42;17.88;;;12.32;;
21758;SDS011;11041;50.854;20.580;2022-09-16T02:21:16;13.32;;;8.07;;
21758;SDS011;11041;50.854;20.580;2022-09-16T02:23:49;12.82;;;7.80;;
21758;SDS011;11041;50.854;20.580;2022-09-16T02:26:23;13.98;;;7.28;;
21758;SDS011;11041;50.854;20.580;2022-09-16T02:29:02;12.75;;;7.22;;
21758;SDS011;11041;50.854;20.580;2022-09-16T02:31:39;17.20;;;8.75;;
21758;SDS011;11041;50.854;20.580;2022-09-16T02:34:16;10.52;;;6.97;;
21758;SDS011;11041;50.854;20.580;2022-09-16T02:36:52;12.32;;;7.90;;
21758;SDS011;11041;50.854;20.580;2022-09-16T02:39:27;14.40;;;8.30;;
21758;SDS011;11041;50.854;20.580;2022-09-16T02:42:02;15.35;;;8.18;;
21758;SDS011;11041;50.854;20.580;2022-09-16T02:44:30;11.52;;;7.60;;
21758;SDS011;11041;50.854;20.580;2022-09-16T02:46:59;16.40;;;9.07;;
21758;SDS011;11041;50.854;20.580;2022-09-16T02:58:20;15.73;;;8.25;;
21758;SDS011;11041;50.854;20.580;2022-09-16T03:00:49;12.98;;;8.40;;
21758;SDS011;11041;50.854;20.580;2022-09-16T03:03:19;20.42;;;8.07;;
21758;SDS011;11041;50.854;20.580;2022-09-16T03:08:43;12.13;;;8.13;;
21758;SDS011;11041;50.854;20.580;2022-09-16T03:14:19;17.90;;;9.15;;
21758;SDS011;11041;50.854;20.580;2022-09-16T03:17:11;20.25;;;9.27;;
21758;SDS011;11041;50.854;20.580;2022-09-16T03:29:33;13.45;;;8.35;;
21758;SDS011;11041;50.854;20.580;2022-09-16T03:32:26;13.40;;;8.18;;
21758;SDS011;11041;50.854;20.580;2022-09-16T03:35:11;13.27;;;8.30;;
21758;SDS011;11041;50.854;20.580;2022-09-16T03:37:50;18.50;;;7.93;;
21758;SDS011;11041;50.854;20.580;2022-09-16T03:40:25;13.25;;;7.80;;
21758;SDS011;11041;50.854;20.580;2022-09-16T03:42:55;12.77;;;7.50;;
21758;SDS011;11041;50.854;20.580;2022-09-16T03:45:22;14.25;;;7.88;;
21758;SDS011;11041;50.854;20.580;2022-09-16T03:47:50;13.93;;;7.53;;
21758;SDS011;11041;50.854;20.580;2022-09-16T03:50:18;11.98;;;7.32;;
21758;SDS011;11041;50.854;20.580;2022-09-16T03:52:45;12.13;;;7.50;;
21758;SDS011;11041;50.854;20.580;2022-09-16T03:55:12;8.23;;;7.05;;
21758;SDS011;11041;50.854;20.580;2022-09-16T03:57:41;8.48;;;6.53;;
21758;SDS011;11041;50.854;20.580;2022-09-16T04:00:08;17.10;;;7.25;;
21758;SDS011;11041;50.854;20.580;2022-09-16T04:02:35;11.35;;;6.10;;
21758;SDS011;11041;50.854;20.580;2022-09-16T04:05:02;14.80;;;7.05;;
21758;SDS011;11041;50.854;20.580;2022-09-16T04:07:30;12.10;;;6.80;;
21758;SDS011;11041;50.854;20.580;2022-09-16T04:09:58;9.60;;;6.28;;
21758;SDS011;11041;50.854;20.580;2022-09-16T04:12:26;10.00;;;6.93;;
21758;SDS011;11041;50.854;20.580;2022-09-16T04:14:54;10.48;;;5.90;;
21758;SDS011;11041;50.854;20.580;2022-09-16T04:17:20;10.70;;;6.03;;
21758;SDS011;11041;50.854;20.580;2022-09-16T04:19:47;12.32;;;6.10;;
21758;SDS011;11041;50.854;20.580;2022-09-16T04:22:13;7.05;;;5.60;;
21758;SDS011;11041;50.854;20.580;2022-09-16T04:24:40;10.85;;;5.38;;
21758;SDS011;11041;50.854;20.580;2022-09-16T04:27:07;9.40;;;5.90;;
21758;SDS011;11041;50.854;20.580;2022-09-16T04:29:33;7.72;;;5.78;;
21758;SDS011;11041;50.854;20.580;2022-09-16T04:31:59;11.52;;;5.40;;
21758;SDS011;11041;50.854;20.580;2022-09-16T04:34:26;8.20;;;5.45;;
21758;SDS011;11041;50.854;20.580;2022-09-16T04:36:53;6.88;;;5.30;;
21758;SDS011;11041;50.854;20.580;2022-09-16T04:39:19;5.30;;;4.18;;
21758;SDS011;11041;50.854;20.580;2022-09-16T04:41:46;8.30;;;5.28;;
21758;SDS011;11041;50.854;20.580;2022-09-16T04:44:12;7.65;;;5.35;;
21758;SDS011;11041;50.854;20.580;2022-09-16T04:46:39;10.57;;;5.40;;
21758;SDS011;11041;50.854;20.580;2022-09-16T04:49:06;7.50;;;4.07;;
21758;SDS011;11041;50.854;20.580;2022-09-16T04:51:32;8.13;;;4.93;;
21758;SDS011;11041;50.854;20.580;2022-09-16T04:53:58;12.15;;;4.70;;
21758;SDS011;11041;50.854;20.580;2022-09-16T04:56:27;7.40;;;4.78;;
21758;SDS011;11041;50.854;20.580;2022-09-16T04:59:00;10.07;;;5.20;;
21758;SDS011;11041;50.854;20.580;2022-09-16T05:01:30;7.75;;;4.72;;
21758;SDS011;11041;50.854;20.580;2022-09-16T05:04:02;8.38;;;5.63;;
21758;SDS011;11041;50.854;20.580;2022-09-16T05:06:31;4.75;;;3.53;;
21758;SDS011;11041;50.854;20.580;2022-09-16T05:09:01;6.72;;;4.50;;
21758;SDS011;11041;50.854;20.580;2022-09-16T05:11:30;9.88;;;4.93;;
21758;SDS011;11041;50.854;20.580;2022-09-16T05:14:02;7.63;;;4.00;;
21758;SDS011;11041;50.854;20.580;2022-09-16T05:16:37;8.65;;;4.20;;
21758;SDS011;11041;50.854;20.580;2022-09-16T05:19:03;9.13;;;4.63;;
21758;SDS011;11041;50.854;20.580;2022-09-16T05:21:31;5.90;;;3.95;;
21758;SDS011;11041;50.854;20.580;2022-09-16T05:24:05;6.03;;;4.25;;
21758;SDS011;11041;50.854;20.580;2022-09-16T05:26:38;7.60;;;3.88;;
21758;SDS011;11041;50.854;20.580;2022-09-16T05:29:09;8.10;;;3.60;;
21758;SDS011;11041;50.854;20.580;2022-09-16T05:31:43;10.05;;;3.80;;
21758;SDS011;11041;50.854;20.580;2022-09-16T05:34:18;7.18;;;4.10;;
21758;SDS011;11041;50.854;20.580;2022-09-16T05:36:48;8.32;;;4.03;;
21758;SDS011;11041;50.854;20.580;2022-09-16T05:39:15;8.65;;;3.78;;
21758;SDS011;11041;50.854;20.580;2022-09-16T05:41:43;6.75;;;3.00;;
21758;SDS011;11041;50.854;20.580;2022-09-16T05:44:10;7.15;;;3.13;;
21758;SDS011;11041;50.854;20.580;2022-09-16T05:46:37;8.25;;;3.38;;
21758;SDS011;11041;50.854;20.580;2022-09-16T05:49:08;6.55;;;3.33;;
21758;SDS011;11041;50.854;20.580;2022-09-16T05:51:36;4.72;;;2.80;;
21758;SDS011;11041;50.854;20.580;2022-09-16T05:54:05;4.90;;;3.30;;
21758;SDS011;11041;50.854;20.580;2022-09-16T05:56:32;8.00;;;2.92;;
21758;SDS011;11041;50.854;20.580;2022-09-16T05:58:59;7.40;;;3.00;;
21758;SDS011;11041;50.854;20.580;2022-09-16T06:01:28;3.35;;;2.30;;
21758;SDS011;11041;50.854;20.580;2022-09-16T06:03:59;5.32;;;2.50;;
21758;SDS011;11041;50.854;20.580;2022-09-16T06:06:29;4.25;;;2.78;;
21758;SDS011;11041;50.854;20.580;2022-09-16T06:08:59;3.63;;;2.50;;
21758;SDS011;11041;50.854;20.580;2022-09-16T06:11:34;7.40;;;2.72;;
21758;SDS011;11041;50.854;20.580;2022-09-16T06:14:03;6.20;;;3.13;;
21758;SDS011;11041;50.854;20.580;2022-09-16T06:16:31;7.63;;;3.67;;
21758;SDS011;11041;50.854;20.580;2022-09-16T06:19:03;4.93;;;3.38;;
21758;SDS011;11041;50.854;20.580;2022-09-16T06:21:35;5.50;;;2.53;;
21758;SDS011;11041;50.854;20.580;2022-09-16T06:24:03;4.05;;;2.75;;
21758;SDS011;11041;50.854;20.580;2022-09-16T06:26:35;10.90;;;3.15;;
21758;SDS011;11041;50.854;20.580;2022-09-16T06:29:04;7.80;;;2.70;;
21758;SDS011;11041;50.854;20.580;2022-09-16T06:31:32;5.75;;;2.63;;
21758;SDS011;11041;50.854;20.580;2022-09-16T06:34:01;4.32;;;2.60;;
21758;SDS011;11041;50.854;20.580;2022-09-16T06:36:30;7.07;;;2.75;;
21758;SDS011;11041;50.854;20.580;2022-09-16T06:39:01;3.15;;;2.25;;
21758;SDS011;11041;50.854;20.580;2022-09-16T06:41:31;4.68;;;2.83;;
21758;SDS011;11041;50.854;20.580;2022-09-16T06:43:59;5.32;;;2.65;;
21758;SDS011;11041;50.854;20.580;2022-09-16T06:46:27;5.63;;;2.55;;
21758;SDS011;11041;50.854;20.580;2022-09-16T06:48:55;7.40;;;3.00;;
21758;SDS011;11041;50.854;20.580;2022-09-16T06:51:24;5.57;;;2.60;;
21758;SDS011;11041;50.854;20.580;2022-09-16T06:53:54;5.35;;;2.72;;
21758;SDS011;11041;50.854;20.580;2022-09-16T06:56:31;3.55;;;2.30;;
21758;SDS011;11041;50.854;20.580;2022-09-16T06:59:00;6.38;;;2.88;;
21758;SDS011;11041;50.854;20.580;2022-09-16T07:01:27;6.13;;;2.65;;
21758;SDS011;11041;50.854;20.580;2022-09-16T07:03:56;9.30;;;3.15;;
21758;SDS011;11041;50.854;20.580;2022-09-16T07:06:30;6.68;;;2.45;;
21758;SDS011;11041;50.854;20.580;2022-09-16T07:08:58;6.50;;;3.05;;
21758;SDS011;11041;50.854;20.580;2022-09-16T07:11:24;4.10;;;2.25;;
21758;SDS011;11041;50.854;20.580;2022-09-16T07:13:51;12.05;;;2.70;;
21758;SDS011;11041;50.854;20.580;2022-09-16T07:16:23;6.13;;;2.50;;
21758;SDS011;11041;50.854;20.580;2022-09-16T07:18:54;3.90;;;2.05;;
21758;SDS011;11041;50.854;20.580;2022-09-16T07:21:24;7.35;;;1.70;;
21758;SDS011;11041;50.854;20.580;2022-09-16T07:23:57;7.15;;;2.20;;
21758;SDS011;11041;50.854;20.580;2022-09-16T07:26:35;3.78;;;2.08;;
21758;SDS011;11041;50.854;20.580;2022-09-16T07:29:03;8.65;;;2.40;;
21758;SDS011;11041;50.854;20.580;2022-09-16T07:31:33;6.13;;;2.30;;
21758;SDS011;11041;50.854;20.580;2022-09-16T07:34:02;6.80;;;2.50;;
21758;SDS011;11041;50.854;20.580;2022-09-16T07:36:35;6.05;;;2.38;;
21758;SDS011;11041;50.854;20.580;2022-09-16T07:39:10;4.65;;;1.88;;
21758;SDS011;11041;50.854;20.580;2022-09-16T07:41:40;3.63;;;1.95;;
21758;SDS011;11041;50.854;20.580;2022-09-16T07:44:11;4.88;;;1.40;;
21758;SDS011;11041;50.854;20.580;2022-09-16T07:46:41;4.63;;;2.08;;
21758;SDS011;11041;50.854;20.580;2022-09-16T07:49:09;5.13;;;2.05;;
21758;SDS011;11041;50.854;20.580;2022-09-16T07:51:39;4.45;;;2.05;;
21758;SDS011;11041;50.854;20.580;2022-09-16T07:54:07;4.13;;;1.92;;
21758;SDS011;11041;50.854;20.580;2022-09-16T07:56:38;6.95;;;2.35;;
21758;SDS011;11041;50.854;20.580;2022-09-16T07:59:07;9.77;;;2.22;;
21758;SDS011;11041;50.854;20.580;2022-09-16T08:01:41;5.65;;;2.22;;
21758;SDS011;11041;50.854;20.580;2022-09-16T08:04:08;6.25;;;2.60;;
21758;SDS011;11041;50.854;20.580;2022-09-16T08:06:36;5.45;;;2.00;;
21758;SDS011;11041;50.854;20.580;2022-09-16T08:09:04;4.97;;;1.70;;
21758;SDS011;11041;50.854;20.580;2022-09-16T08:11:33;5.18;;;1.63;;
21758;SDS011;11041;50.854;20.580;2022-09-16T08:14:00;5.50;;;2.25;;
21758;SDS011;11041;50.854;20.580;2022-09-16T08:16:26;8.63;;;2.10;;
21758;SDS011;11041;50.854;20.580;2022-09-16T08:18:55;4.88;;;2.47;;
21758;SDS011;11041;50.854;20.580;2022-09-16T08:21:25;7.35;;;2.65;;
21758;SDS011;11041;50.854;20.580;2022-09-16T08:23:54;6.60;;;2.53;;
21758;SDS011;11041;50.854;20.580;2022-09-16T08:26:22;4.72;;;2.38;;
21758;SDS011;11041;50.854;20.580;2022-09-16T08:28:50;5.20;;;2.60;;
21758;SDS011;11041;50.854;20.580;2022-09-16T08:31:17;2.20;;;2.00;;
21758;SDS011;11041;50.854;20.580;2022-09-16T08:33:46;6.97;;;2.70;;
21758;SDS011;11041;50.854;20.580;2022-09-16T08:36:15;3.97;;;2.42;;
21758;SDS011;11041;50.854;20.580;2022-09-16T08:38:48;4.57;;;2.60;;
21758;SDS011;11041;50.854;20.580;2022-09-16T08:50:53;3.78;;;3.13;;
21758;SDS011;11041;50.854;20.580;2022-09-16T08:56:13;4.63;;;3.03;;
21758;SDS011;11041;50.854;20.580;2022-09-16T08:58:48;3.20;;;2.28;;
21758;SDS011;11041;50.854;20.580;2022-09-16T09:03:57;5.35;;;3.17;;
21758;SDS011;11041;50.854;20.580;2022-09-16T09:12:17;6.35;;;2.90;;
21758;SDS011;11041;50.854;20.580;2022-09-16T09:15:25;4.18;;;2.65;;
21758;SDS011;11041;50.854;20.580;2022-09-16T09:18:09;6.15;;;2.60;;
21758;SDS011;11041;50.854;20.580;2022-09-16T09:27:03;3.30;;;1.75;;
21758;SDS011;11041;50.854;20.580;2022-09-16T09:38:41;4.13;;;1.75;;
21758;SDS011;11041;50.854;20.580;2022-09-16T09:44:59;3.88;;;2.00;;
21758;SDS011;11041;50.854;20.580;2022-09-16T09:47:56;5.05;;;1.80;;
21758;SDS011;11041;50.854;20.580;2022-09-16T09:50:45;6.22;;;2.22;;
21758;SDS011;11041;50.854;20.580;2022-09-16T09:58:47;4.88;;;1.50;;
21758;SDS011;11041;50.854;20.580;2022-09-16T10:01:19;2.90;;;1.80;;
21758;SDS011;11041;50.854;20.580;2022-09-16T10:03:47;2.67;;;1.45;;
21758;SDS011;11041;50.854;20.580;2022-09-16T10:06:21;6.25;;;1.92;;
21758;SDS011;11041;50.854;20.580;2022-09-16T10:08:59;4.25;;;2.00;;
21758;SDS011;11041;50.854;20.580;2022-09-16T10:11:28;5.05;;;2.25;;
21758;SDS011;11041;50.854;20.580;2022-09-16T10:13:57;6.68;;;1.90;;
21758;SDS011;11041;50.854;20.580;2022-09-16T10:16:35;3.42;;;1.95;;
21758;SDS011;11041;50.854;20.580;2022-09-16T10:19:20;4.28;;;2.08;;
21758;SDS011;11041;50.854;20.580;2022-09-16T10:21:54;4.53;;;1.90;;
21758;SDS011;11041;50.854;20.580;2022-09-16T10:24:35;3.25;;;2.30;;
21758;SDS011;11041;50.854;20.580;2022-09-16T10:30:12;5.53;;;2.47;;
21758;SDS011;11041;50.854;20.580;2022-09-16T10:35:37;5.22;;;2.65;;
21758;SDS011;11041;50.854;20.580;2022-09-16T10:40:38;4.63;;;2.70;;
21758;SDS011;11041;50.854;20.580;2022-09-16T10:43:35;6.10;;;2.85;;
21758;SDS011;11041;50.854;20.580;2022-09-16T10:46:13;1.95;;;1.60;;
21758;SDS011;11041;50.854;20.580;2022-09-16T10:48:41;4.25;;;2.85;;
21758;SDS011;11041;50.854;20.580;2022-09-16T10:53:59;2.03;;;1.50;;
21758;SDS011;11041;50.854;20.580;2022-09-16T10:56:49;3.28;;;1.48;;
21758;SDS011;11041;50.854;20.580;2022-09-16T10:59:17;2.05;;;1.60;;
21758;SDS011;11041;50.854;20.580;2022-09-16T11:01:46;3.30;;;1.58;;
21758;SDS011;11041;50.854;20.580;2022-09-16T11:15:52;3.90;;;1.60;;
21758;SDS011;11041;50.854;20.580;2022-09-16T11:27:00;2.15;;;1.65;;
21758;SDS011;11041;50.854;20.580;2022-09-16T11:45:04;3.92;;;2.13;;
21758;SDS011;11041;50.854;20.580;2022-09-16T11:50:40;3.58;;;1.55;;
21758;SDS011;11041;50.854;20.580;2022-09-16T11:58:54;2.13;;;1.55;;
21758;SDS011;11041;50.854;20.580;2022-09-16T12:01:44;2.67;;;1.60;;
21758;SDS011;11041;50.854;20.580;2022-09-16T12:04:22;2.53;;;1.30;;
21758;SDS011;11041;50.854;20.580;2022-09-16T12:10:48;4.90;;;1.80;;
21758;SDS011;11041;50.854;20.580;2022-09-16T12:13:40;2.58;;;1.52;;
21758;SDS011;11041;50.854;20.580;2022-09-16T12:16:15;2.10;;;1.50;;
21758;SDS011;11041;50.854;20.580;2022-09-16T12:18:55;1.73;;;1.60;;
21758;SDS011;11041;50.854;20.580;2022-09-16T12:24:09;1.75;;;1.65;;
21758;SDS011;11041;50.854;20.580;2022-09-16T12:30:12;1.70;;;1.60;;
21758;SDS011;11041;50.854;20.580;2022-09-16T12:36:04;3.72;;;2.28;;
21758;SDS011;11041;50.854;20.580;2022-09-16T12:38:41;5.05;;;2.53;;
21758;SDS011;11041;50.854;20.580;2022-09-16T12:59:33;3.80;;;2.42;;
21758;SDS011;11041;50.854;20.580;2022-09-16T13:03:05;6.72;;;2.78;;
21758;SDS011;11041;50.854;20.580;2022-09-16T13:05:47;2.95;;;2.47;;
21758;SDS011;11041;50.854;20.580;2022-09-16T13:08:23;2.28;;;2.05;;
21758;SDS011;11041;50.854;20.580;2022-09-16T13:11:02;2.10;;;1.90;;
21758;SDS011;11041;50.854;20.580;2022-09-16T13:13:41;2.72;;;1.88;;
21758;SDS011;11041;50.854;20.580;2022-09-16T13:16:25;2.67;;;1.80;;
21758;SDS011;11041;50.854;20.580;2022-09-16T13:22:23;2.50;;;1.67;;
21758;SDS011;11041;50.854;20.580;2022-09-16T13:25:07;3.72;;;2.15;;
21758;SDS011;11041;50.854;20.580;2022-09-16T13:27:57;4.63;;;1.45;;
21758;SDS011;11041;50.854;20.580;2022-09-16T13:30:31;1.63;;;1.38;;
21758;SDS011;11041;50.854;20.580;2022-09-16T13:35:47;2.95;;;1.40;;
21758;SDS011;11041;50.854;20.580;2022-09-16T13:41:33;5.90;;;2.03;;
21758;SDS011;11041;50.854;20.580;2022-09-16T13:44:49;2.60;;;1.27;;
21758;SDS011;11041;50.854;20.580;2022-09-16T13:52:27;1.40;;;1.30;;
21758;SDS011;11041;50.854;20.580;2022-09-16T13:54:58;1.58;;;1.27;;
21758;SDS011;11041;50.854;20.580;2022-09-16T14:00:18;2.88;;;1.40;;
21758;SDS011;11041;50.854;20.580;2022-09-16T14:02:54;3.25;;;1.27;;
21758;SDS011;11041;50.854;20.580;2022-09-16T14:14:15;5.15;;;1.60;;
21758;SDS011;11041;50.854;20.580;2022-09-16T14:16:48;3.97;;;1.73;;
21758;SDS011;11041;50.854;20.580;2022-09-16T14:19:22;2.38;;;1.60;;
21758;SDS011;11041;50.854;20.580;2022-09-16T14:22:16;2.47;;;1.63;;
21758;SDS011;11041;50.854;20.580;2022-09-16T14:24:47;3.25;;;1.75;;
21758;SDS011;11041;50.854;20.580;2022-09-16T14:30:08;2.83;;;1.45;;
21758;SDS011;11041;50.854;20.580;2022-09-16T14:32:41;2.05;;;1.55;;
21758;SDS011;11041;50.854;20.580;2022-09-16T14:35:10;2.78;;;1.88;;
21758;SDS011;11041;50.854;20.580;2022-09-16T14:37:52;3.58;;;1.42;;
21758;SDS011;11041;50.854;20.580;2022-09-16T14:40:24;4.97;;;1.50;;
21758;SDS011;11041;50.854;20.580;2022-09-16T14:45:44;1.58;;;1.10;;
21758;SDS011;11041;50.854;20.580;2022-09-16T14:48:19;2.47;;;1.35;;
21758;SDS011;11041;50.854;20.580;2022-09-16T14:50:55;4.65;;;1.35;;
21758;SDS011;11041;50.854;20.580;2022-09-16T14:53:24;2.15;;;1.10;;
21758;SDS011;11041;50.854;20.580;2022-09-16T14:55:57;2.97;;;1.45;;
21758;SDS011;11041;50.854;20.580;2022-09-16T14:58:25;2.55;;;1.25;;
21758;SDS011;11041;50.854;20.580;2022-09-16T15:00:59;2.45;;;1.35;;
21758;SDS011;11041;50.854;20.580;2022-09-16T15:03:43;1.90;;;1.30;;
21758;SDS011;11041;50.854;20.580;2022-09-16T15:06:20;1.63;;;1.30;;
21758;SDS011;11041;50.854;20.580;2022-09-16T15:08:58;3.60;;;1.30;;
21758;SDS011;11041;50.854;20.580;2022-09-16T15:11:46;2.78;;;1.65;;
21758;SDS011;11041;50.854;20.580;2022-09-16T15:14:20;5.82;;;1.63;;
21758;SDS011;11041;50.854;20.580;2022-09-16T15:16:48;4.07;;;1.73;;
21758;SDS011;11041;50.854;20.580;2022-09-16T15:19:24;4.38;;;1.80;;
21758;SDS011;11041;50.854;20.580;2022-09-16T15:22:00;2.67;;;1.80;;
21758;SDS011;11041;50.854;20.580;2022-09-16T15:24:29;5.15;;;2.00;;
21758;SDS011;11041;50.854;20.580;2022-09-16T15:27:00;3.13;;;1.65;;
21758;SDS011;11041;50.854;20.580;2022-09-16T15:29:29;2.60;;;1.77;;
21758;SDS011;11041;50.854;20.580;2022-09-16T15:37:54;5.15;;;2.20;;
21758;SDS011;11041;50.854;20.580;2022-09-16T15:45:59;7.07;;;2.20;;
21758;SDS011;11041;50.854;20.580;2022-09-16T15:48:33;5.30;;;2.30;;
21758;SDS011;11041;50.854;20.580;2022-09-16T15:56:52;2.88;;;1.80;;
21758;SDS011;11041;50.854;20.580;2022-09-16T15:59:31;5.95;;;3.38;;
21758;SDS011;11041;50.854;20.580;2022-09-16T16:02:45;3.67;;;3.38;;
21758;SDS011;11041;50.854;20.580;2022-09-16T16:05:28;8.05;;;5.97;;
21758;SDS011;11041;50.854;20.580;2022-09-16T16:08:00;10.02;;;6.57;;
21758;SDS011;11041;50.854;20.580;2022-09-16T16:10:29;18.15;;;8.88;;
21758;SDS011;11041;50.854;20.580;2022-09-16T16:13:03;24.60;;;14.48;;
21758;SDS011;11041;50.854;20.580;2022-09-16T16:15:30;15.85;;;11.35;;
21758;SDS011;11041;50.854;20.580;2022-09-16T16:18:03;11.30;;;6.65;;
21758;SDS011;11041;50.854;20.580;2022-09-16T16:20:32;10.13;;;7.07;;
21758;SDS011;11041;50.854;20.580;2022-09-16T16:23:01;8.60;;;5.45;;
21758;SDS011;11041;50.854;20.580;2022-09-16T16:25:28;6.80;;;4.30;;
21758;SDS011;11041;50.854;20.580;2022-09-16T16:27:55;2.75;;;2.25;;
21758;SDS011;11041;50.854;20.580;2022-09-16T16:30:23;3.10;;;2.45;;
21758;SDS011;11041;50.854;20.580;2022-09-16T16:32:49;3.45;;;3.10;;
21758;SDS011;11041;50.854;20.580;2022-09-16T16:35:16;4.57;;;2.67;;
21758;SDS011;11041;50.854;20.580;2022-09-16T16:37:42;2.92;;;2.20;;
21758;SDS011;11041;50.854;20.580;2022-09-16T16:40:09;2.30;;;2.10;;
21758;SDS011;11041;50.854;20.580;2022-09-16T16:42:36;3.58;;;2.10;;
21758;SDS011;11041;50.854;20.580;2022-09-16T16:45:05;2.63;;;1.98;;
21758;SDS011;11041;50.854;20.580;2022-09-16T16:47:32;2.50;;;2.30;;
21758;SDS011;11041;50.854;20.580;2022-09-16T16:49:59;4.00;;;2.50;;
21758;SDS011;11041;50.854;20.580;2022-09-16T16:52:26;3.00;;;2.28;;
21758;SDS011;11041;50.854;20.580;2022-09-16T16:54:52;2.75;;;2.10;;
21758;SDS011;11041;50.854;20.580;2022-09-16T16:57:19;2.72;;;2.53;;
21758;SDS011;11041;50.854;20.580;2022-09-16T16:59:45;3.05;;;2.50;;
21758;SDS011;11041;50.854;20.580;2022-09-16T17:02:12;3.67;;;2.70;;
21758;SDS011;11041;50.854;20.580;2022-09-16T17:04:40;3.17;;;2.55;;
21758;SDS011;11041;50.854;20.580;2022-09-16T17:07:06;8.35;;;2.30;;
21758;SDS011;11041;50.854;20.580;2022-09-16T17:09:33;3.25;;;2.60;;
21758;SDS011;11041;50.854;20.580;2022-09-16T17:12:00;5.88;;;2.80;;
21758;SDS011;11041;50.854;20.580;2022-09-16T17:14:29;4.45;;;3.97;;
21758;SDS011;11041;50.854;20.580;2022-09-16T17:16:57;3.33;;;3.00;;
21758;SDS011;11041;50.854;20.580;2022-09-16T17:19:27;3.22;;;2.92;;
21758;SDS011;11041;50.854;20.580;2022-09-16T17:21:54;4.80;;;3.17;;
21758;SDS011;11041;50.854;20.580;2022-09-16T17:24:22;3.65;;;3.30;;
21758;SDS011;11041;50.854;20.580;2022-09-16T17:26:48;4.50;;;3.33;;
21758;SDS011;11041;50.854;20.580;2022-09-16T17:29:15;4.28;;;3.40;;
21758;SDS011;11041;50.854;20.580;2022-09-16T17:31:42;3.83;;;3.03;;
21758;SDS011;11041;50.854;20.580;2022-09-16T17:34:10;4.30;;;3.22;;
21758;SDS011;11041;50.854;20.580;2022-09-16T17:36:40;5.57;;;3.38;;
21758;SDS011;11041;50.854;20.580;2022-09-16T17:39:14;3.65;;;3.13;;
21758;SDS011;11041;50.854;20.580;2022-09-16T17:41:44;3.30;;;3.00;;
21758;SDS011;11041;50.854;20.580;2022-09-16T17:44:13;5.55;;;3.78;;
21758;SDS011;11041;50.854;20.580;2022-09-16T17:46:41;6.10;;;3.53;;
21758;SDS011;11041;50.854;20.580;2022-09-16T17:49:12;9.38;;;3.67;;
21758;SDS011;11041;50.854;20.580;2022-09-16T17:51:43;5.88;;;3.92;;
21758;SDS011;11041;50.854;20.580;2022-09-16T17:54:09;6.78;;;3.67;;
21758;SDS011;11041;50.854;20.580;2022-09-16T17:56:36;4.10;;;3.47;;
21758;SDS011;11041;50.854;20.580;2022-09-16T17:59:03;4.55;;;3.80;;
21758;SDS011;11041;50.854;20.580;2022-09-16T18:01:30;6.75;;;3.92;;
21758;SDS011;11041;50.854;20.580;2022-09-16T18:03:59;4.68;;;3.65;;
21758;SDS011;11041;50.854;20.580;2022-09-16T18:06:27;4.72;;;3.55;;
21758;SDS011;11041;50.854;20.580;2022-09-16T18:09:03;4.40;;;4.00;;
21758;SDS011;11041;50.854;20.580;2022-09-16T18:11:32;3.60;;;3.22;;
21758;SDS011;11041;50.854;20.580;2022-09-16T18:14:00;7.15;;;3.58;;
21758;SDS011;11041;50.854;20.580;2022-09-16T18:16:29;4.50;;;3.72;;
21758;SDS011;11041;50.854;20.580;2022-09-16T18:18:56;5.57;;;4.07;;
21758;SDS011;11041;50.854;20.580;2022-09-16T18:21:26;7.15;;;4.20;;
21758;SDS011;11041;50.854;20.580;2022-09-16T18:23:55;5.45;;;3.50;;
21758;SDS011;11041;50.854;20.580;2022-09-16T18:26:25;4.40;;;4.00;;
21758;SDS011;11041;50.854;20.580;2022-09-16T18:28:52;4.82;;;3.95;;
21758;SDS011;11041;50.854;20.580;2022-09-16T18:31:21;5.35;;;4.15;;
21758;SDS011;11041;50.854;20.580;2022-09-16T18:33:50;5.10;;;4.30;;
21758;SDS011;11041;50.854;20.580;2022-09-16T18:36:20;6.68;;;4.05;;
21758;SDS011;11041;50.854;20.580;2022-09-16T18:38:53;4.18;;;3.60;;
21758;SDS011;11041;50.854;20.580;2022-09-16T18:41:26;4.38;;;3.83;;
21758;SDS011;11041;50.854;20.580;2022-09-16T18:43:56;4.32;;;3.50;;
21758;SDS011;11041;50.854;20.580;2022-09-16T18:46:30;4.35;;;3.80;;
21758;SDS011;11041;50.854;20.580;2022-09-16T18:48:59;6.68;;;3.88;;